Time;durP1;ratioP1;P1;durP2;ratioP2;P2;SDS_P1;SDS_P2;PMS_P1;PMS_P2;Temp;Humidity;BMP_temperature;BMP_pressure;BME280_temperature;BME280_humidity;BME280_pressure;Samples;Min_cycle;Max_cycle;Signal;HPM_P1;HPM_P2
2023/07/26 00:03:01;;;;;;;;;;;21.70;42.00;;;20.88;44.38;100307.44;12256492;19;20330;-85
2023/07/26 00:07:02;;;;;;;;;;;21.70;42.10;;;20.89;44.61;100319.69;12262807;19;19919;-85
2023/07/26 00:11:03;;;;;;;;;;;21.70;42.10;;;20.60;44.37;100285.59;12269033;19;19922;-85
2023/07/26 00:15:05;;;;;;;;;;;21.70;42.10;;;20.87;44.44;100334.94;12262321;19;19930;-85
2023/07/26 00:19:07;;;;;;;;;;;21.70;42.10;;;20.75;44.55;100318.50;12268545;19;19918;-84
2023/07/26 00:23:08;;;;;;;;;;;21.60;41.90;;;20.47;44.41;100283.38;12266222;19;19926;-85
2023/07/26 00:27:10;;;;;;;;;;;21.60;41.80;;;20.63;44.53;100325.94;12265431;19;20260;-85
2023/07/26 00:31:11;;;;;;;;;;;21.50;41.90;;;20.63;44.62;100336.53;12263781;19;19925;-85
2023/07/26 00:35:21;;;;;;;;;;;21.50;41.80;;;20.46;44.51;100313.53;12263131;19;19939;-85
2023/07/26 00:39:22;;;;;;;;;;;21.40;41.90;;;20.43;44.44;100327.13;12271345;19;19923;-85
2023/07/26 00:43:24;;;;;;;;;;;21.30;41.80;;;20.20;44.23;100301.16;12270080;19;19923;-85
2023/07/26 00:47:25;;;;;;;;;;;21.30;41.90;;;20.38;44.24;100337.38;12266817;19;19970;-84
2023/07/26 00:51:27;;;;;;;;;;;21.20;41.80;;;20.29;44.33;100345.28;12268003;19;19918;-85
2023/07/26 00:55:29;;;;;;;;;;;21.20;41.70;;;20.21;44.49;100347.88;12264454;19;19919;-85
2023/07/26 00:59:30;;;;;;;;;;;21.20;41.80;;;20.11;44.15;100336.53;12269380;19;20373;-85
2023/07/26 01:03:32;;;;;;;;;;;21.10;41.80;;;20.09;44.42;100349.13;12268431;19;19915;-85
2023/07/26 01:08:00;;;;;;;;;;;21.00;41.80;;;20.04;44.49;100349.59;12264989;19;19922;-85
2023/07/26 01:12:06;;;;;;;;;;;21.00;42.00;;;20.04;44.27;100356.72;12268361;19;19915;-85
2023/07/26 01:16:08;;;;;;;;;;;20.90;42.00;;;20.01;44.27;100363.16;12265125;19;19954;-85
2023/07/26 01:20:10;;;;;;;;;;;20.90;42.10;;;20.03;44.26;100368.31;12277573;19;19915;-85
2023/07/26 01:24:11;;;;;;;;;;;20.80;42.10;;;19.97;44.43;100371.56;12276606;19;20377;-85
2023/07/26 01:28:12;;;;;;;;;;;20.80;42.10;;;19.64;44.17;100321.78;12273918;19;19915;-85
2023/07/26 01:32:16;;;;;;;;;;;20.80;42.10;;;19.78;44.41;100359.34;12277538;19;19914;-85
2023/07/26 01:36:26;;;;;;;;;;;20.70;42.20;;;19.76;44.42;100370.06;12274014;19;19928;-85
2023/07/26 01:40:28;;;;;;;;;;;20.60;42.20;;;19.66;44.70;100358.75;12278592;19;19903;-85
2023/07/26 01:44:36;;;;;;;;;;;20.60;42.20;;;19.63;44.44;100362.50;12278873;19;19922;-85
2023/07/26 01:48:38;;;;;;;;;;;20.60;42.20;;;19.62;44.43;100382.03;12278755;19;19943;-85
2023/07/26 01:52:41;;;;;;;;;;;20.50;42.30;;;19.50;44.49;100377.94;12279235;19;20246;-85
2023/07/26 01:56:42;;;;;;;;;;;20.40;42.30;;;19.36;44.49;100355.47;12276315;19;19911;-85
2023/07/26 02:00:44;;;;;;;;;;;20.40;42.30;;;19.46;44.58;100368.63;12279153;19;19958;-85
2023/07/26 02:04:46;;;;;;;;;;;20.40;42.40;;;19.32;44.59;100354.09;12277242;19;19918;-85
2023/07/26 02:08:48;;;;;;;;;;;20.30;42.30;;;19.39;44.50;100373.72;12277584;19;19911;-85
2023/07/26 02:12:50;;;;;;;;;;;20.30;42.40;;;19.35;44.42;100377.63;12275973;19;19971;-85
2023/07/26 02:16:51;;;;;;;;;;;20.30;42.40;;;19.34;44.66;100383.91;12275803;19;19919;-85
2023/07/26 02:20:53;;;;;;;;;;;20.20;42.40;;;19.17;44.62;100368.81;12278361;19;20378;-85
2023/07/26 02:24:55;;;;;;;;;;;20.20;42.40;;;19.14;44.44;100366.47;12276241;19;19926;-85
2023/07/26 02:28:56;;;;;;;;;;;20.10;42.40;;;19.28;44.50;100402.19;12278269;19;20321;-85
2023/07/26 02:32:58;;;;;;;;;;;20.10;42.40;;;19.19;44.50;100393.34;12273782;19;19918;-85
2023/07/26 02:37:00;;;;;;;;;;;20.00;42.50;;;19.16;44.47;100409.53;12272506;19;19923;-85
2023/07/26 02:41:02;;;;;;;;;;;20.00;42.40;;;19.03;44.64;100399.28;12276432;19;19915;-85
2023/07/26 02:45:04;;;;;;;;;;;20.00;42.50;;;19.04;44.50;100406.25;12274130;19;20233;-85
2023/07/26 02:49:06;;;;;;;;;;;19.90;42.50;;;18.93;44.50;100398.47;12277295;19;19918;-86
2023/07/26 02:53:08;;;;;;;;;;;19.90;42.50;;;18.94;44.44;100422.16;12269647;19;20343;-86
2023/07/26 02:57:09;;;;;;;;;;;19.80;42.50;;;18.91;44.75;100422.47;12267753;19;19907;-86
2023/07/26 03:01:10;;;;;;;;;;;19.80;42.60;;;18.84;44.69;100421.38;12272874;19;19947;-86
2023/07/26 03:05:12;;;;;;;;;;;19.70;42.60;;;18.89;44.67;100435.00;12273843;19;19946;-86
2023/07/26 03:09:16;;;;;;;;;;;19.70;42.70;;;18.79;44.76;100432.41;12269337;19;19919;-86
2023/07/26 03:13:17;;;;;;;;;;;19.70;42.70;;;18.59;44.59;100401.66;12268495;19;19911;-86
2023/07/26 03:17:19;;;;;;;;;;;19.70;42.80;;;18.79;44.88;100448.28;12265139;19;19915;-87
2023/07/26 03:21:20;;;;;;;;;;;19.60;42.80;;;18.70;44.63;100456.22;12267963;19;20337;-86
2023/07/26 03:25:22;;;;;;;;;;;19.50;42.80;;;18.52;44.87;100446.38;12267814;19;19931;-87
2023/07/26 03:29:24;;;;;;;;;;;19.50;42.80;;;18.51;44.87;100459.75;12266747;19;19914;-86
2023/07/26 03:33:26;;;;;;;;;;;19.40;42.80;;;18.42;44.87;100458.78;12263938;19;19927;-86
2023/07/26 03:37:27;;;;;;;;;;;19.40;42.80;;;18.47;44.67;100472.41;12262226;19;19911;-87
2023/07/26 03:41:29;;;;;;;;;;;19.40;42.90;;;18.32;44.78;100447.38;12264501;19;19923;-87
2023/07/26 03:45:30;;;;;;;;;;;19.30;42.90;;;18.40;44.88;100475.75;12260058;19;20646;-87
2023/07/26 03:49:32;;;;;;;;;;;19.30;42.90;;;18.32;45.02;100479.94;12265651;19;19923;-87
2023/07/26 03:53:34;;;;;;;;;;;19.20;42.90;;;18.21;45.02;100471.34;12263623;19;19975;-86
2023/07/26 03:57:35;;;;;;;;;;;19.20;43.00;;;18.27;45.04;100481.34;12261008;19;19923;-86
2023/07/26 04:01:38;;;;;;;;;;;19.20;43.00;;;18.37;45.05;100503.31;12267809;19;19929;-86
2023/07/26 04:05:40;;;;;;;;;;;19.20;43.00;;;18.28;44.68;100496.22;12263193;19;19918;-86
2023/07/26 04:09:41;;;;;;;;;;;19.20;43.10;;;18.22;45.06;100489.69;12267620;19;19971;-87
2023/07/26 04:13:43;;;;;;;;;;;19.20;43.00;;;18.19;44.88;100489.13;12265728;19;19922;-87
2023/07/26 04:17:45;;;;;;;;;;;19.10;43.10;;;17.98;44.86;100465.47;12267106;19;19914;-87
2023/07/26 04:21:46;;;;;;;;;;;19.10;43.00;;;18.19;45.09;100515.56;12268172;19;19914;-87
2023/07/26 04:25:51;;;;;;;;;;;19.10;43.10;;;18.05;44.99;100515.00;12267131;19;19923;-87
2023/07/26 04:29:53;;;;;;;;;;;19.00;43.10;;;18.04;45.21;100516.00;12264491;19;19919;-86
2023/07/26 04:33:54;;;;;;;;;;;19.00;43.20;;;17.98;45.02;100524.44;12256860;19;19929;-86
2023/07/26 04:37:55;;;;;;;;;;;19.00;43.10;;;17.90;45.00;100513.72;12258329;19;19922;-86
2023/07/26 04:41:57;;;;;;;;;;;18.90;43.20;;;17.96;45.01;100536.97;12263918;19;20247;-86
2023/07/26 04:45:58;;;;;;;;;;;18.80;43.20;;;17.89;45.24;100522.63;12263592;19;19927;-87
2023/07/26 04:50:00;;;;;;;;;;;18.80;43.30;;;17.85;45.18;100519.44;12261358;19;20270;-86
2023/07/26 04:54:01;;;;;;;;;;;18.80;43.30;;;17.86;45.38;100525.56;12258399;19;19934;-86
2023/07/26 04:58:03;;;;;;;;;;;18.80;43.40;;;17.74;45.39;100511.63;12258296;19;19934;-87
2023/07/26 05:02:05;;;;;;;;;;;18.80;43.50;;;17.78;45.39;100520.91;12259376;19;19929;-87
2023/07/26 05:06:06;;;;;;;;;;;18.70;43.40;;;17.81;45.52;100517.22;12256661;19;19915;-86
2023/07/26 05:10:08;;;;;;;;;;;18.70;43.60;;;17.70;45.31;100504.91;12256091;19;19907;-86
2023/07/26 05:14:10;;;;;;;;;;;18.70;43.70;;;17.59;45.69;100484.75;12259636;19;19914;-86
2023/07/26 05:18:14;;;;;;;;;;;18.80;43.70;;;17.92;45.38;100533.75;12247368;19;19926;-87
2023/07/26 05:22:16;;;;;;;;;;;18.80;43.70;;;17.95;45.63;100540.56;12255599;19;20350;-87
2023/07/26 05:26:17;;;;;;;;;;;18.80;43.70;;;17.85;45.46;100521.25;12253968;19;20358;-87
2023/07/26 05:30:19;;;;;;;;;;;18.90;43.70;;;18.00;45.47;100534.88;12258759;19;19914;-86
2023/07/26 05:34:21;;;;;;;;;;;18.90;43.80;;;17.87;45.71;100520.13;12252636;19;20003;-86
2023/07/26 05:38:22;;;;;;;;;;;18.90;43.80;;;17.95;45.77;100543.22;12250971;19;19915;-87
2023/07/26 05:42:24;;;;;;;;;;;18.90;43.80;;;17.78;45.74;100517.44;12253058;19;19911;-87
2023/07/26 05:46:25;;;;;;;;;;;18.90;43.80;;;17.99;45.73;100544.63;12253483;19;20344;-89
2023/07/26 05:50:27;;;;;;;;;;;18.90;43.80;;;18.03;45.71;100545.19;12254845;19;19971;-89
2023/07/26 05:54:28;;;;;;;;;;;19.00;43.90;;;18.01;45.80;100545.34;12249843;19;20010;-89
2023/07/26 05:58:30;;;;;;;;;;;19.00;44.00;;;18.01;45.74;100537.41;12253529;19;19931;-90
2023/07/26 06:02:32;;;;;;;;;;;19.10;44.10;;;18.05;45.91;100546.72;12250567;19;19982;-89
2023/07/26 06:06:33;;;;;;;;;;;19.10;44.00;;;18.11;45.69;100551.44;12254800;19;19919;-89
2023/07/26 06:10:34;;;;;;;;;;;19.10;43.90;;;17.90;45.81;100513.72;12257361;19;19918;-88
2023/07/26 06:14:37;;;;;;;;;;;19.20;44.10;;;18.17;45.94;100549.22;12254915;19;20325;-90
2023/07/26 06:18:38;;;;;;;;;;;19.20;44.20;;;18.10;46.00;100536.56;12256093;19;19910;-90
2023/07/26 06:22:40;;;;;;;;;;;19.20;44.30;;;18.23;45.88;100553.97;12256289;19;19948;-90
2023/07/26 06:26:41;;;;;;;;;;;19.30;44.10;;;18.34;45.81;100561.78;12250330;19;19927;-89
2023/07/26 06:30:43;;;;;;;;;;;19.30;44.20;;;18.41;46.01;100572.63;12256396;19;19932;-90
2023/07/26 06:34:44;;;;;;;;;;;19.40;44.00;;;18.44;46.07;100573.16;12248961;19;19923;-90
2023/07/26 06:38:46;;;;;;;;;;;19.40;44.40;;;18.42;46.07;100559.25;12256514;19;19947;-90
2023/07/26 06:42:47;;;;;;;;;;;19.50;44.10;;;18.50;46.28;100567.34;12253870;19;20334;-91
2023/07/26 06:46:49;;;;;;;;;;;19.50;44.30;;;18.50;46.20;100559.41;12252668;19;19952;-87
2023/07/26 06:50:51;;;;;;;;;;;19.50;44.10;;;18.55;45.98;100570.41;12254959;19;19918;-89
2023/07/26 06:54:52;;;;;;;;;;;19.60;44.20;;;18.61;45.86;100579.56;12253913;19;19919;-89
2023/07/26 06:58:54;;;;;;;;;;;19.60;44.20;;;18.69;46.12;100586.81;12257289;19;20411;-89
2023/07/26 07:02:56;;;;;;;;;;;19.70;44.20;;;18.76;46.27;100590.56;12254374;19;19915;-89
2023/07/26 07:06:58;;;;;;;;;;;19.70;44.20;;;18.73;46.15;100567.03;12251356;19;19907;-89
2023/07/26 07:11:00;;;;;;;;;;;19.80;44.30;;;18.82;46.32;100573.31;12251787;19;19923;-90
2023/07/26 07:15:01;;;;;;;;;;;19.90;44.40;;;18.86;46.23;100569.41;12248948;19;19911;-89
2023/07/26 07:19:03;;;;;;;;;;;20.00;44.30;;;18.99;46.18;100580.53;12252939;19;20296;-89
2023/07/26 07:23:04;;;;;;;;;;;20.10;44.30;;;19.20;46.26;100591.75;12253825;19;19919;-90
2023/07/26 07:27:06;;;;;;;;;;;20.20;44.50;;;19.18;46.04;100572.53;12250074;19;19930;-89
2023/07/26 07:31:08;;;;;;;;;;;20.30;44.40;;;19.27;46.17;100584.06;12252086;19;19923;-90
2023/07/26 07:35:10;;;;;;;;;;;20.40;44.30;;;19.32;46.29;100570.41;12249225;19;19915;-89
2023/07/26 07:39:12;;;;;;;;;;;20.40;44.10;;;19.36;46.28;100569.97;12251386;19;19919;-90
2023/07/26 07:43:14;;;;;;;;;;;20.50;44.10;;;19.48;46.13;100572.44;12251802;19;19918;-89
2023/07/26 07:47:16;;;;;;;;;;;20.60;44.20;;;19.48;46.19;100564.47;12249837;19;19981;-88
2023/07/26 07:51:17;;;;;;;;;;;20.70;44.30;;;19.58;46.34;100559.97;12252834;19;19958;-88
2023/07/26 07:55:19;;;;;;;;;;;20.80;44.30;;;19.87;46.31;100583.66;12248771;19;19926;-89
2023/07/26 07:59:20;;;;;;;;;;;21.00;44.30;;;20.10;46.45;100592.06;12250335;19;19922;-88
2023/07/26 08:03:22;;;;;;;;;;;21.10;44.40;;;20.06;46.34;100565.03;12250903;19;19911;-88
2023/07/26 08:07:24;;;;;;;;;;;21.30;44.20;;;20.19;46.40;100559.31;12247029;19;19914;-88
2023/07/26 08:11:25;;;;;;;;;;;21.40;43.90;;;20.49;46.47;100589.09;12250671;19;19918;-89
2023/07/26 08:15:32;;;;;;;;;;;21.60;44.10;;;20.51;46.34;100579.19;12246961;19;19907;-89
2023/07/26 08:19:33;;;;;;;;;;;21.70;43.60;;;20.66;46.01;100592.78;12249748;19;19922;-88
2023/07/26 08:23:35;;;;;;;;;;;21.80;43.60;;;20.79;46.24;100603.81;12248969;19;19982;-89
2023/07/26 08:27:37;;;;;;;;;;;21.80;43.50;;;20.63;46.19;100585.97;12242730;19;20262;-89
2023/07/26 08:31:38;;;;;;;;;;;21.90;43.30;;;20.73;46.10;100583.19;12244917;19;19986;-89
2023/07/26 08:35:40;;;;;;;;;;;22.00;43.30;;;20.77;46.21;100579.25;12245461;19;19914;-89
2023/07/26 08:39:41;;;;;;;;;;;22.00;43.30;;;21.03;46.15;100597.84;12243847;19;19946;-89
2023/07/26 08:43:45;;;;;;;;;;;22.10;43.60;;;21.02;46.18;100584.75;12247672;19;19914;-87
2023/07/26 08:47:48;;;;;;;;;;;22.20;43.40;;;21.22;45.86;100602.09;12244656;19;19914;-89
2023/07/26 08:51:50;;;;;;;;;;;22.30;42.90;;;21.15;46.21;100578.00;12246667;19;20240;-89
2023/07/26 08:55:52;;;;;;;;;;;22.40;43.00;;;21.20;45.90;100580.22;12245458;19;19932;-89
2023/07/26 08:59:53;;;;;;;;;;;22.40;43.00;;;21.32;46.17;100610.81;12248246;19;19927;-89
2023/07/26 09:03:55;;;;;;;;;;;22.40;42.90;;;21.35;45.97;100622.94;12250913;19;19915;-89
2023/07/26 09:07:57;;;;;;;;;;;22.50;43.30;;;21.21;45.71;100595.16;12245529;19;19933;-89
2023/07/26 09:11:59;;;;;;;;;;;22.40;43.00;;;21.33;45.74;100614.28;12249624;19;20003;-84
2023/07/26 09:16:01;;;;;;;;;;;22.40;43.00;;;21.38;46.09;100612.84;12248776;19;19926;-85
2023/07/26 09:20:03;;;;;;;;;;;22.50;43.00;;;21.43;46.14;100610.56;12253621;19;20374;-86
2023/07/26 09:24:05;;;;;;;;;;;22.50;43.00;;;21.61;46.18;100618.47;12254248;19;19918;-85
2023/07/26 09:28:08;;;;;;;;;;;22.60;43.10;;;21.40;45.97;100567.53;12249930;19;19926;-86
2023/07/26 09:32:10;;;;;;;;;;;22.70;42.80;;;21.62;45.61;100603.34;12254457;19;19951;-86
2023/07/26 09:36:11;;;;;;;;;;;22.80;42.80;;;21.76;45.58;100628.50;12250058;19;20689;-85
2023/07/26 09:40:13;;;;;;;;;;;22.80;42.70;;;21.80;45.59;100625.34;12263554;19;19929;-85
2023/07/26 09:44:16;;;;;;;;;;;22.90;42.30;;;21.92;45.93;100625.88;12265906;19;19915;-85
2023/07/26 09:48:18;;;;;;;;;;;22.90;42.10;;;21.99;45.55;100616.28;12259953;19;19911;-84
2023/07/26 09:52:20;;;;;;;;;;;23.00;42.50;;;21.99;45.82;100613.63;12265421;19;19938;-85
2023/07/26 09:56:23;;;;;;;;;;;23.10;42.60;;;21.90;45.84;100580.03;12263690;19;19986;-85
2023/07/26 10:00:26;;;;;;;;;;;23.10;42.50;;;22.15;45.49;100609.34;12264279;19;19923;-85
2023/07/26 10:04:51;;;;;;;;;;;23.20;42.60;;;22.17;45.82;100599.34;12263723;19;19918;-85
2023/07/26 10:08:53;;;;;;;;;;;23.20;42.50;;;22.20;45.42;100591.13;12261476;19;19939;-85
2023/07/26 10:12:57;;;;;;;;;;;23.30;42.50;;;22.23;45.50;100588.13;12262381;19;19927;-85
2023/07/26 10:17:00;;;;;;;;;;;23.30;42.30;;;22.32;45.43;100603.09;12259304;19;19922;-85
2023/07/26 10:21:04;;;;;;;;;;;23.40;42.20;;;22.28;45.65;100596.44;12264359;19;20253;-86
2023/07/26 10:25:06;;;;;;;;;;;23.30;42.50;;;22.30;45.61;100602.41;12262636;19;19922;-85
2023/07/26 10:29:08;;;;;;;;;;;23.30;42.60;;;22.28;45.44;100599.09;12264383;19;19936;-85
2023/07/26 10:33:13;;;;;;;;;;;23.30;42.70;;;22.32;45.67;100597.75;12262954;19;20329;-85
2023/07/26 10:37:18;;;;;;;;;;;23.30;42.70;;;22.38;45.18;100589.13;12255902;19;19926;-85
2023/07/26 10:41:24;;;;;;;;;;;23.30;43.20;;;22.45;45.63;100581.31;12260743;19;19922;-86
2023/07/26 10:45:44;;;;;;;;;;;23.40;42.90;;;22.55;45.44;100584.66;12259610;19;19912;-85
2023/07/26 10:49:49;;;;;;;;;;;23.50;42.70;;;22.62;45.37;100587.47;12258243;19;19911;-85
2023/07/26 10:53:53;;;;;;;;;;;23.60;42.30;;;22.56;45.07;100575.66;12260933;19;19926;-85
2023/07/26 10:57:57;;;;;;;;;;;23.60;41.50;;;22.68;45.15;100581.47;12257878;19;19914;-85
2023/07/26 11:02:03;;;;;;;;;;;23.60;41.90;;;22.75;45.21;100574.50;12260608;19;19925;-86
2023/07/26 11:06:05;;;;;;;;;;;23.70;42.00;;;22.82;45.41;100564.84;12259747;19;19923;-85
2023/07/26 11:10:33;;;;;;;;;;;23.90;42.20;;;23.04;45.06;100576.66;12257135;19;19918;-85
2023/07/26 11:14:36;;;;;;;;;;;24.00;42.00;;;23.05;45.33;100569.47;12256771;19;19915;-86
2023/07/26 11:18:40;;;;;;;;;;;24.10;42.00;;;23.16;44.87;100569.13;12260753;19;19947;-85
2023/07/26 11:22:42;;;;;;;;;;;24.20;41.90;;;23.20;45.25;100562.47;12262966;19;19911;-86
2023/07/26 11:26:47;;;;;;;;;;;24.20;41.70;;;23.29;45.05;100563.25;12259788;19;19938;-85
2023/07/26 11:30:52;;;;;;;;;;;24.30;41.60;;;23.34;45.09;100552.91;12262911;19;19918;-85
2023/07/26 11:34:58;;;;;;;;;;;24.30;41.30;;;23.50;45.09;100562.69;12260283;19;19919;-85
2023/07/26 11:38:59;;;;;;;;;;;24.50;41.80;;;23.31;44.76;100527.44;12264108;19;20337;-85
2023/07/26 11:43:01;;;;;;;;;;;24.60;41.60;;;23.55;44.74;100563.84;12264188;19;19922;-86
2023/07/26 11:47:03;;;;;;;;;;;24.70;41.50;;;23.57;45.00;100571.63;12260200;19;20342;-85
2023/07/26 11:51:05;;;;;;;;;;;24.70;42.00;;;23.36;44.70;100550.91;12264052;19;19919;-86
2023/07/26 11:55:07;;;;;;;;;;;24.60;42.00;;;23.31;44.58;100566.59;12260427;19;19922;-86
2023/07/26 11:59:09;;;;;;;;;;;24.50;41.80;;;23.31;44.57;100596.72;12261868;19;20372;-85
2023/07/26 12:03:11;;;;;;;;;;;24.40;41.90;;;23.16;44.87;100598.44;12261927;19;20317;-85
2023/07/26 12:07:13;;;;;;;;;;;24.30;41.60;;;22.80;44.76;100569.50;12258713;19;19919;-85
2023/07/26 12:11:17;;;;;;;;;;;24.10;41.90;;;22.87;44.62;100613.09;12260213;19;19915;-85
2023/07/26 12:15:19;;;;;;;;;;;23.90;42.40;;;22.71;44.54;100610.41;12258847;19;20581;-85
2023/07/26 12:19:24;;;;;;;;;;;23.70;42.30;;;22.59;44.88;100617.09;12262189;19;20355;-85
2023/07/26 12:23:28;;;;;;;;;;;23.50;42.50;;;22.45;44.69;100616.75;12260362;19;19955;-85
2023/07/26 12:27:34;;;;;;;;;;;23.40;42.80;;;22.42;44.68;100614.41;12255067;19;20600;-85
2023/07/26 12:31:39;;;;;;;;;;;23.30;43.30;;;22.24;44.87;100608.38;12257275;19;20281;-85
2023/07/26 12:35:46;;;;;;;;;;;23.20;42.90;;;22.20;44.64;100607.91;12253617;19;19922;-85
2023/07/26 12:39:49;;;;;;;;;;;23.10;43.20;;;22.22;44.80;100610.38;12255924;19;19915;-85
2023/07/26 12:43:55;;;;;;;;;;;23.00;44.20;;;22.11;44.62;100598.19;12256825;19;20343;-85
2023/07/26 12:47:57;;;;;;;;;;;22.90;43.50;;;22.14;45.08;100607.66;12253970;19;20267;-85
2023/07/26 12:51:59;;;;;;;;;;;22.90;43.40;;;22.16;45.17;100603.03;12258536;19;19917;-84
2023/07/26 12:56:00;;;;;;;;;;;22.90;43.50;;;22.23;44.98;100617.38;12252691;19;19923;-85
2023/07/26 13:00:03;;;;;;;;;;;22.90;43.90;;;22.09;45.14;100589.56;12258614;19;19906;-86
2023/07/26 13:04:04;;;;;;;;;;;23.00;43.90;;;22.32;44.65;100605.75;12260156;19;19951;-86
2023/07/26 13:08:06;;;;;;;;;;;23.10;43.90;;;22.42;45.23;100608.25;12259561;19;19982;-86
2023/07/26 13:12:08;;;;;;;;;;;23.10;43.80;;;22.46;45.23;100604.25;12259706;19;19922;-86
2023/07/26 13:16:09;;;;;;;;;;;23.20;43.60;;;22.56;45.14;100598.78;12260804;19;19931;-86
2023/07/26 13:20:12;;;;;;;;;;;23.30;43.50;;;22.62;44.92;100584.81;12258363;19;19930;-86
2023/07/26 13:24:13;;;;;;;;;;;23.40;43.20;;;22.63;44.89;100573.16;12261498;19;19918;-86
2023/07/26 13:28:15;;;;;;;;;;;23.50;41.70;;;22.78;44.74;100586.63;12258485;19;19955;-86
2023/07/26 13:32:17;;;;;;;;;;;23.60;42.20;;;22.80;44.73;100584.66;12257595;19;19915;-86
2023/07/26 13:36:23;;;;;;;;;;;23.70;42.10;;;22.64;45.08;100559.69;12251054;19;19915;-86
2023/07/26 13:40:25;;;;;;;;;;;23.70;42.30;;;22.87;44.86;100585.63;12241253;19;20336;-85
2023/07/26 13:44:27;;;;;;;;;;;23.80;42.40;;;22.93;44.87;100601.78;12244081;19;19935;-86
2023/07/26 13:48:28;;;;;;;;;;;23.80;42.30;;;22.96;44.69;100608.63;12245447;19;19922;-85
2023/07/26 13:52:30;;;;;;;;;;;23.80;42.30;;;22.92;44.75;100600.09;12247479;19;19919;-85
2023/07/26 13:56:32;;;;;;;;;;;23.80;42.50;;;22.83;44.90;100582.47;12243263;19;19918;-85
2023/07/26 14:00:37;;;;;;;;;;;23.80;42.70;;;22.85;44.66;100627.59;12239794;19;21375;-86
2023/07/26 14:04:39;;;;;;;;;;;23.80;42.70;;;22.66;44.76;100634.91;12246838;19;19919;-85
2023/07/26 14:08:40;;;;;;;;;;;23.70;42.60;;;22.51;44.75;100637.38;12246663;19;20244;-85
2023/07/26 14:12:42;;;;;;;;;;;23.60;43.00;;;22.30;44.67;100655.63;12242523;19;19927;-85
2023/07/26 14:16:44;;;;;;;;;;;23.40;43.10;;;22.05;44.88;100647.53;12242058;19;20261;-85
2023/07/26 14:20:46;;;;;;;;;;;23.20;42.90;;;21.78;44.92;100622.03;12243575;19;20337;-85
2023/07/26 14:24:47;;;;;;;;;;;22.90;43.00;;;21.80;44.65;100648.47;12250421;19;19927;-85
2023/07/26 14:28:49;;;;;;;;;;;22.80;43.30;;;21.88;44.59;100681.22;12257374;19;20319;-85
2023/07/26 14:32:50;;;;;;;;;;;22.70;43.40;;;21.57;44.64;100643.69;12255866;19;19918;-85
2023/07/26 14:36:52;;;;;;;;;;;22.60;43.60;;;21.66;44.23;100676.47;12252045;19;20023;-85
2023/07/26 14:40:53;;;;;;;;;;;22.50;43.60;;;21.42;44.79;100671.84;12256216;19;20340;-85
2023/07/26 14:44:55;;;;;;;;;;;22.30;43.80;;;21.32;44.55;100682.53;12253706;19;20255;-85
2023/07/26 14:48:56;;;;;;;;;;;22.10;43.90;;;21.20;44.96;100710.34;12255649;19;19967;-85
2023/07/26 14:52:58;;;;;;;;;;;22.00;44.40;;;21.08;44.67;100725.66;12248704;19;19929;-85
2023/07/26 14:56:59;;;;;;;;;;;21.80;44.10;;;20.97;44.67;100710.81;12247466;19;20356;-84
2023/07/26 15:01:03;;;;;;;;;;;21.70;44.30;;;20.83;44.75;100703.38;12255601;19;19911;-85
2023/07/26 15:05:05;;;;;;;;;;;21.60;44.20;;;20.75;45.21;100698.84;12250483;19;20335;-85
2023/07/26 15:09:06;;;;;;;;;;;21.40;44.50;;;20.71;44.96;100700.13;12252767;19;19930;-85
2023/07/26 15:13:07;;;;;;;;;;;21.40;44.70;;;20.62;45.07;100694.88;12255684;19;19910;-85
2023/07/26 15:17:09;;;;;;;;;;;21.30;44.60;;;20.51;45.06;100687.94;12250853;19;19918;-86
2023/07/26 15:21:11;;;;;;;;;;;21.30;44.80;;;20.52;45.45;100682.50;12247572;19;19978;-86
2023/07/26 15:25:12;;;;;;;;;;;21.30;45.30;;;20.71;45.44;100704.59;12251207;19;19939;-85
2023/07/26 15:29:13;;;;;;;;;;;21.30;45.40;;;20.62;45.70;100687.75;12253760;19;19986;-86
2023/07/26 15:33:15;;;;;;;;;;;21.40;45.20;;;20.67;45.53;100697.94;12250668;19;20337;-86
2023/07/26 15:37:17;;;;;;;;;;;21.40;45.00;;;20.68;45.44;100688.97;12250042;19;19927;-85
2023/07/26 15:41:18;;;;;;;;;;;21.40;45.90;;;20.74;45.63;100689.22;12253770;19;19923;-86
2023/07/26 15:45:20;;;;;;;;;;;21.40;45.60;;;20.79;45.77;100686.09;12253628;19;19915;-86
2023/07/26 15:49:21;;;;;;;;;;;21.50;45.80;;;20.84;45.77;100694.44;12251355;19;19933;-86
2023/07/26 15:53:23;;;;;;;;;;;21.50;45.90;;;20.88;45.95;100693.16;12252365;19;19944;-86
2023/07/26 15:57:24;;;;;;;;;;;21.60;45.90;;;20.50;45.95;100646.50;12247622;19;19931;-85
2023/07/26 16:01:26;;;;;;;;;;;21.50;45.50;;;20.69;45.88;100669.44;12257700;19;19976;-86
2023/07/26 16:05:27;;;;;;;;;;;21.60;45.60;;;20.80;45.76;100676.31;12252035;19;19952;-86
2023/07/26 16:09:29;;;;;;;;;;;21.60;45.80;;;21.02;46.08;100705.03;12250025;19;19923;-85
2023/07/26 16:13:31;;;;;;;;;;;21.70;45.90;;;21.08;46.19;100707.09;12249807;19;19923;-85
2023/07/26 16:17:32;;;;;;;;;;;21.80;46.10;;;21.16;46.08;100706.31;12241257;19;19947;-86
2023/07/26 16:21:34;;;;;;;;;;;21.80;45.80;;;20.86;46.00;100663.25;12254207;19;20603;-86
2023/07/26 16:25:37;;;;;;;;;;;21.90;46.10;;;21.10;46.17;100697.16;12250135;19;19926;-86
2023/07/26 16:29:38;;;;;;;;;;;21.90;45.80;;;21.24;46.16;100714.34;12251503;19;19907;-86
2023/07/26 16:33:40;;;;;;;;;;;22.00;45.90;;;21.19;46.17;100698.88;12248717;19;19955;-86
2023/07/26 16:37:42;;;;;;;;;;;22.00;45.60;;;21.21;45.96;100704.03;12250173;19;20389;-86
2023/07/26 16:41:44;;;;;;;;;;;22.00;45.80;;;21.17;46.03;100689.38;12249604;19;19954;-86
2023/07/26 16:45:45;;;;;;;;;;;22.00;45.60;;;21.16;46.08;100687.72;12250431;19;20402;-86
2023/07/26 16:49:48;;;;;;;;;;;22.00;45.70;;;21.25;45.96;100701.91;12249316;19;19935;-87
2023/07/26 16:53:49;;;;;;;;;;;22.10;45.70;;;21.21;46.29;100693.41;12246080;19;19927;-86
2023/07/26 16:57:51;;;;;;;;;;;22.10;45.70;;;21.31;46.47;100698.66;12244129;19;20668;-86
2023/07/26 17:01:54;;;;;;;;;;;22.10;45.60;;;21.32;46.38;100700.28;12250466;19;19911;-86
2023/07/26 17:05:56;;;;;;;;;;;22.30;45.60;;;21.31;46.41;100698.66;12244813;19;19911;-86
2023/07/26 17:09:57;;;;;;;;;;;22.10;45.50;;;21.33;46.45;100709.94;12249330;19;20261;-86
2023/07/26 17:13:59;;;;;;;;;;;22.10;45.80;;;21.28;46.57;100696.28;12247783;19;19932;-86
2023/07/26 17:18:01;;;;;;;;;;;22.10;45.90;;;21.29;46.45;100701.44;12246566;19;20257;-86
2023/07/26 17:22:02;;;;;;;;;;;22.10;45.80;;;21.29;46.40;100697.97;12246301;19;19936;-86
2023/07/26 17:26:04;;;;;;;;;;;22.10;46.00;;;21.28;46.44;100691.81;12244007;19;20770;-86
2023/07/26 17:30:07;;;;;;;;;;;22.10;45.80;;;21.28;46.13;100693.63;12247348;19;20333;-86
2023/07/26 17:34:09;;;;;;;;;;;22.10;45.90;;;21.25;46.49;100685.97;12246924;19;19918;-86
2023/07/26 17:38:10;;;;;;;;;;;22.10;45.80;;;21.35;46.32;100690.19;12245727;19;19915;-86
2023/07/26 17:42:11;;;;;;;;;;;22.10;45.80;;;21.08;46.70;100658.47;12247146;19;20358;-86
2023/07/26 17:46:13;;;;;;;;;;;22.10;46.00;;;21.28;46.36;100691.81;12247652;19;19914;-86
2023/07/26 17:50:14;;;;;;;;;;;22.10;46.20;;;21.18;46.36;100680.44;12248403;19;20346;-88
2023/07/26 17:54:18;;;;;;;;;;;22.10;45.90;;;21.27;46.60;100689.31;12247233;19;20330;-88
2023/07/26 17:58:20;;;;;;;;;;;22.10;46.20;;;21.21;46.55;100685.44;12245914;19;19926;-88
2023/07/26 18:02:22;;;;;;;;;;;22.10;46.10;;;21.30;46.56;100711.06;12261573;19;20253;-89
2023/07/26 18:06:23;;;;;;;;;;;22.00;46.00;;;21.31;46.81;100714.59;12258922;19;20385;-88
2023/07/26 18:10:25;;;;;;;;;;;22.10;46.10;;;21.20;46.71;100705.88;12260794;19;19927;-88